createdAt,value
2019-03-15T00:01:45.382Z,74.29
2019-03-15T00:04:17.957Z,74.08
2019-03-15T00:06:50.648Z,74.42
2019-03-15T00:09:25.867Z,74.35
2019-03-15T00:11:58.368Z,74.31
2019-03-15T00:14:30.838Z,74.03
2019-03-15T00:17:03.308Z,73.91
2019-03-15T00:19:35.787Z,73.84
2019-03-15T00:22:08.251Z,73.94
2019-03-15T00:24:41.710Z,74.47
2019-03-15T00:27:14.226Z,74.57
2019-03-15T00:29:48.998Z,74.17
2019-03-15T00:32:22.388Z,74.30
2019-03-15T00:34:54.927Z,74.28
2019-03-15T00:37:27.418Z,74.33
2019-03-15T00:39:59.619Z,74.26
2019-03-15T00:42:30.866Z,74.43
2019-03-15T00:45:03.167Z,75.74
2019-03-15T00:47:35.377Z,74.67
2019-03-15T00:50:06.917Z,74.76
2019-03-15T00:52:39.124Z,76.40
2019-03-15T00:55:11.698Z,74.73
2019-03-15T00:57:44.052Z,74.63
2019-03-15T01:00:16.788Z,74.77
2019-03-15T01:02:49.188Z,74.78
2019-03-15T01:05:21.637Z,74.78
2019-03-15T01:07:53.977Z,74.78
2019-03-15T01:10:26.398Z,75.17
2019-03-15T01:12:58.988Z,74.76
2019-03-15T01:15:31.508Z,74.69
2019-03-15T01:18:03.718Z,74.87
2019-03-15T01:20:36.317Z,75.34
2019-03-15T01:23:08.823Z,75.09
2019-03-15T01:25:41.139Z,75.01
2019-03-15T01:28:13.843Z,74.91
2019-03-15T01:30:46.238Z,74.57
2019-03-15T01:33:18.618Z,74.54
2019-03-15T01:35:51.088Z,74.52
2019-03-15T01:38:23.368Z,74.50
2019-03-15T01:40:54.781Z,74.26
2019-03-15T01:43:26.938Z,75.85
2019-03-15T01:45:59.358Z,74.47
2019-03-15T01:48:31.936Z,74.24
2019-03-15T01:51:05.452Z,74.85
2019-03-15T01:53:37.830Z,74.23
2019-03-15T01:56:10.237Z,74.14
2019-03-15T01:58:42.738Z,74.03
2019-03-15T02:01:15.188Z,74.22
2019-03-15T02:03:47.488Z,73.97
2019-03-15T02:06:18.756Z,74.01
2019-03-15T02:08:50.948Z,75.66
2019-03-15T02:11:23.530Z,73.99
2019-03-15T02:13:56.017Z,73.89
2019-03-15T02:16:28.609Z,74.00
2019-03-15T02:19:01.078Z,73.99
2019-03-15T02:21:34.528Z,73.98
2019-03-15T02:24:06.930Z,74.20
2019-03-15T02:26:39.269Z,74.06
2019-03-15T02:29:11.818Z,74.42
2019-03-15T02:31:44.269Z,74.32
2019-03-15T02:34:16.759Z,74.70
2019-03-15T02:36:49.178Z,74.28
2019-03-15T02:39:22.088Z,74.25
2019-03-15T02:41:54.642Z,74.22
2019-03-15T02:44:26.910Z,74.19
2019-03-15T02:46:59.515Z,74.42
2019-03-15T02:49:31.861Z,74.25
2019-03-15T02:52:04.741Z,74.29
2019-03-15T02:54:37.258Z,74.78
2019-03-15T02:57:10.447Z,74.63
2019-03-15T02:59:41.716Z,74.40
2019-03-15T03:02:13.687Z,76.14
2019-03-15T03:04:45.227Z,75.18
2019-03-15T03:07:17.429Z,77.12
2019-03-15T03:09:49.995Z,75.34
2019-03-15T03:12:22.422Z,75.51
2019-03-15T03:14:55.238Z,75.27
2019-03-15T03:17:27.700Z,75.63
2019-03-15T03:20:00.908Z,75.96
2019-03-15T03:22:35.291Z,76.08
2019-03-15T03:25:08.590Z,76.09
2019-03-15T03:27:40.904Z,76.26
2019-03-15T03:30:16.493Z,77.96
2019-03-15T03:32:47.718Z,76.80
2019-03-15T03:35:20.230Z,76.84
2019-03-15T03:37:52.777Z,76.75
2019-03-15T03:40:25.209Z,76.79
2019-03-15T03:42:57.710Z,76.87
2019-03-15T03:45:30.059Z,77.10
2019-03-15T03:48:02.328Z,77.52
2019-03-15T03:50:33.496Z,77.05
2019-03-15T03:53:05.598Z,79.33
2019-03-15T03:55:37.907Z,77.20
2019-03-15T03:58:10.559Z,77.02
2019-03-15T04:00:43.028Z,77.39
2019-03-15T04:03:15.538Z,77.13
2019-03-15T04:05:48.088Z,77.39
2019-03-15T04:08:20.458Z,77.47
2019-03-15T04:10:52.808Z,77.46
2019-03-15T04:13:25.488Z,77.48
2019-03-15T04:15:57.951Z,77.48
2019-03-15T04:18:30.408Z,78.12
2019-03-15T04:21:03.047Z,77.52
2019-03-15T04:23:37.995Z,77.82
2019-03-15T04:26:09.758Z,77.84
2019-03-15T04:28:42.049Z,78.25
2019-03-15T04:31:15.557Z,78.21
2019-03-15T04:33:48.021Z,78.67
2019-03-15T04:36:20.547Z,78.77
2019-03-15T04:38:52.828Z,79.03
2019-03-15T04:41:25.298Z,79.54
2019-03-15T04:43:58.688Z,80.05
2019-03-15T04:46:32.698Z,80.01
2019-03-15T04:49:05.228Z,80.18
2019-03-15T04:51:37.648Z,80.73
2019-03-15T04:54:10.008Z,81.07
2019-03-15T04:56:42.999Z,80.91
2019-03-15T04:59:15.578Z,81.21
2019-03-15T05:01:47.888Z,81.51
2019-03-15T05:04:20.919Z,81.55
2019-03-15T05:06:53.389Z,81.87
2019-03-15T05:09:25.772Z,82.03
2019-03-15T05:11:58.197Z,82.15
2019-03-15T05:14:30.558Z,82.05
2019-03-15T05:17:02.981Z,82.06
2019-03-15T05:19:35.458Z,82.40
2019-03-15T05:22:07.820Z,82.43
2019-03-15T05:24:40.813Z,82.25
2019-03-15T05:27:13.338Z,82.10
2019-03-15T05:29:45.983Z,82.56
2019-03-15T05:32:18.559Z,82.27
2019-03-15T05:34:51.078Z,82.48
2019-03-15T05:37:23.523Z,82.64
2019-03-15T05:39:55.959Z,82.37
2019-03-15T05:42:27.324Z,82.43
2019-03-15T05:44:59.578Z,84.45
2019-03-15T05:47:32.168Z,83.28
2019-03-15T05:50:04.938Z,82.97
2019-03-15T05:52:37.486Z,82.90
2019-03-15T05:55:11.311Z,82.45
2019-03-15T05:57:44.923Z,82.54
2019-03-15T06:00:17.450Z,82.71
2019-03-15T06:02:51.093Z,82.91
2019-03-15T06:05:23.418Z,82.91
2019-03-15T06:07:55.908Z,83.13
2019-03-15T06:10:28.223Z,83.01
2019-03-15T06:13:00.873Z,83.39
2019-03-15T06:15:33.329Z,83.14
2019-03-15T06:18:06.944Z,83.00
2019-03-15T06:20:39.528Z,83.41
2019-03-15T06:23:11.929Z,82.66
2019-03-15T06:25:44.368Z,82.85
2019-03-15T06:28:16.708Z,83.28
2019-03-15T06:30:49.789Z,83.57
2019-03-15T06:33:22.281Z,83.04
2019-03-15T06:35:55.028Z,83.10
2019-03-15T06:38:28.499Z,83.04
2019-03-15T06:41:01.028Z,83.11
2019-03-15T06:43:33.308Z,83.13
2019-03-15T06:46:04.897Z,82.82
2019-03-15T06:48:37.190Z,84.90
2019-03-15T06:51:09.639Z,83.48
2019-03-15T06:53:42.098Z,83.18
2019-03-15T06:56:14.638Z,82.78
2019-03-15T06:58:47.128Z,82.84
2019-03-15T07:01:19.484Z,82.58
2019-03-15T07:03:52.012Z,82.87
2019-03-15T07:06:24.346Z,84.25
2019-03-15T07:08:56.887Z,82.78
2019-03-15T07:11:29.488Z,83.20
2019-03-15T07:14:01.938Z,83.32
2019-03-15T07:16:37.958Z,84.13
2019-03-15T07:19:09.018Z,82.55
2019-03-15T07:21:41.528Z,82.88
2019-03-15T07:24:24.394Z,83.31
2019-03-15T07:26:48.441Z,83.27
2019-03-15T07:29:21.219Z,82.42
2019-03-15T07:31:54.138Z,82.58
2019-03-15T07:34:26.658Z,82.80
2019-03-15T07:36:59.188Z,82.87
2019-03-15T07:39:31.728Z,82.68
2019-03-15T07:42:04.348Z,82.52
2019-03-15T07:44:36.798Z,83.66
2019-03-15T07:47:09.212Z,83.69
2019-03-15T07:49:42.100Z,84.60
2019-03-15T07:52:14.568Z,83.94
2019-03-15T07:54:46.893Z,82.82
2019-03-15T07:57:19.387Z,84.13
2019-03-15T07:59:51.911Z,83.41
2019-03-15T08:02:24.789Z,83.85
2019-03-15T08:04:57.108Z,83.62
2019-03-15T08:07:36.171Z,83.04
2019-03-15T08:10:03.725Z,83.25
2019-03-15T08:12:38.709Z,84.12
2019-03-15T08:15:10.729Z,84.31
2019-03-15T08:17:43.169Z,84.12
2019-03-15T08:20:15.851Z,82.76
2019-03-15T08:22:48.203Z,83.21
2019-03-15T08:25:21.647Z,83.66
2019-03-15T08:27:54.047Z,83.27
2019-03-15T08:30:26.496Z,83.90
2019-03-15T08:33:09.597Z,83.91
2019-03-15T08:35:33.208Z,82.86
2019-03-15T08:38:05.703Z,84.20
2019-03-15T08:40:38.278Z,84.57
2019-03-15T08:43:10.717Z,84.51
2019-03-15T08:45:43.194Z,83.27
2019-03-15T08:48:15.608Z,84.50
2019-03-15T08:50:48.068Z,83.98
2019-03-15T08:53:21.258Z,84.20
2019-03-15T08:55:53.598Z,83.23
2019-03-15T08:58:26.017Z,83.18
2019-03-15T09:00:58.534Z,82.71
2019-03-15T09:03:34.158Z,82.13
2019-03-15T09:06:05.098Z,80.55
2019-03-15T09:08:37.729Z,81.53
2019-03-15T09:11:11.289Z,82.40
2019-03-15T09:13:43.537Z,82.39
2019-03-15T09:16:15.929Z,81.35
2019-03-15T09:18:48.403Z,80.86
2019-03-15T09:21:20.930Z,81.19
2019-03-15T09:23:53.748Z,80.67
2019-03-15T09:26:26.388Z,81.37
2019-03-15T09:28:58.907Z,81.84
2019-03-15T09:31:46.410Z,81.13
2019-03-15T09:34:05.668Z,81.41
2019-03-15T09:36:49.388Z,82.24
2019-03-15T09:39:12.267Z,81.19
2019-03-15T09:41:43.576Z,80.88
2019-03-15T09:44:15.738Z,81.33
2019-03-15T09:46:48.020Z,81.12
2019-03-15T09:49:20.778Z,82.02
2019-03-15T09:51:53.007Z,81.07
2019-03-15T09:54:26.283Z,80.67
2019-03-15T09:56:58.918Z,80.43
2019-03-15T09:59:31.572Z,78.23
2019-03-15T10:02:07.601Z,77.86
2019-03-15T10:04:38.478Z,78.09
2019-03-15T10:07:11.077Z,77.42
2019-03-15T10:09:46.170Z,77.43
2019-03-15T10:12:17.659Z,76.61
2019-03-15T10:14:50.721Z,76.97
2019-03-15T10:17:23.274Z,75.70
2019-03-15T10:19:56.799Z,76.73
2019-03-15T10:22:29.367Z,74.91
2019-03-15T10:25:01.919Z,75.24
2019-03-15T10:27:34.599Z,76.09
2019-03-15T10:30:08.058Z,72.00
2019-03-15T10:32:41.216Z,71.38
2019-03-15T10:35:13.942Z,71.60
2019-03-15T10:49:17.258Z,69.22
2019-03-15T10:51:49.798Z,69.23
2019-03-15T10:54:22.418Z,69.55
2019-03-15T10:56:54.932Z,69.64
2019-03-15T10:59:27.518Z,66.56
2019-03-15T11:01:59.989Z,66.15
2019-03-15T11:04:33.419Z,62.51
2019-03-15T11:07:05.979Z,59.26
2019-03-15T11:09:38.508Z,59.39
2019-03-15T11:12:11.278Z,60.12
2019-03-15T11:14:43.823Z,63.28
2019-03-15T11:17:16.348Z,64.25
2019-03-15T11:19:48.781Z,65.38
2019-03-15T11:22:21.367Z,67.96
2019-03-15T11:24:53.901Z,71.31
2019-03-15T11:27:26.568Z,72.35
2019-03-15T11:29:59.138Z,72.93
2019-03-15T11:32:31.518Z,71.92
2019-03-15T11:35:04.225Z,69.35
2019-03-15T11:37:36.693Z,66.36
2019-03-15T11:40:09.807Z,63.38
2019-03-15T11:42:42.219Z,63.37
2019-03-15T11:45:14.711Z,64.00
2019-03-15T11:48:02.596Z,64.67
2019-03-15T11:50:21.340Z,66.91
2019-03-15T11:52:53.749Z,67.38
2019-03-15T11:55:26.332Z,66.59
2019-03-15T11:57:59.109Z,64.81
2019-03-15T12:00:31.676Z,67.18
2019-03-15T12:03:04.156Z,68.53
2019-03-15T12:05:36.730Z,69.97
2019-03-15T12:08:09.260Z,70.08
2019-03-15T12:10:41.649Z,68.53
2019-03-15T12:13:14.077Z,68.85
2019-03-15T12:15:46.508Z,67.38
2019-03-15T12:18:19.131Z,68.71
2019-03-15T12:20:51.478Z,68.73
2019-03-15T12:23:22.677Z,68.53
2019-03-15T12:25:54.809Z,67.55
2019-03-15T12:28:28.703Z,67.91
2019-03-15T12:31:02.008Z,67.23
2019-03-15T12:33:34.596Z,64.29
2019-03-15T12:36:07.138Z,63.85
2019-03-15T12:38:39.659Z,64.22
2019-03-15T12:41:12.218Z,65.42
2019-03-15T12:43:45.748Z,64.53
2019-03-15T12:46:18.148Z,61.12
2019-03-15T12:48:50.608Z,57.56
2019-03-15T12:51:32.106Z,60.23
2019-03-15T12:53:57.238Z,61.85
2019-03-15T12:56:29.679Z,60.81
2019-03-15T12:59:02.150Z,60.05
2019-03-15T13:01:35.709Z,61.53
2019-03-15T13:04:08.088Z,60.17
2019-03-15T13:06:40.507Z,61.76
2019-03-15T13:09:13.069Z,62.44
2019-03-15T13:11:45.889Z,63.33
2019-03-15T13:14:18.368Z,64.58
2019-03-15T13:16:50.802Z,64.85
2019-03-15T13:19:23.268Z,65.60
2019-03-15T13:21:55.709Z,66.66
2019-03-15T13:24:30.528Z,65.69
2019-03-15T13:27:07.670Z,65.34
2019-03-15T13:29:37.407Z,67.15
2019-03-15T13:32:10.208Z,70.20
2019-03-15T13:34:42.814Z,72.38
2019-03-15T13:37:15.448Z,73.81
2019-03-15T13:39:47.958Z,74.79
2019-03-15T13:42:20.458Z,74.85
2019-03-15T13:44:55.272Z,75.26
2019-03-15T13:47:27.568Z,75.09
2019-03-15T13:49:59.015Z,75.09
2019-03-15T13:52:31.278Z,76.04
2019-03-15T13:55:03.859Z,74.60
2019-03-15T13:57:37.448Z,75.81
2019-03-15T14:00:11.008Z,74.87
2019-03-15T14:02:43.588Z,74.81
2019-03-15T14:05:16.103Z,74.84
2019-03-15T14:07:48.746Z,75.30
2019-03-15T14:10:21.298Z,75.96
2019-03-15T14:12:53.849Z,76.62
2019-03-15T14:15:26.509Z,77.08
2019-03-15T14:17:59.188Z,78.44
2019-03-15T14:20:31.744Z,79.33
2019-03-15T14:23:04.150Z,79.43
2019-03-15T14:25:36.703Z,78.23
2019-03-15T14:28:09.409Z,78.04
2019-03-15T14:30:43.008Z,75.97
2019-03-15T14:33:15.585Z,75.41
2019-03-15T14:35:48.288Z,74.65
2019-03-15T14:38:21.781Z,74.16
2019-03-15T14:40:54.443Z,73.82
2019-03-15T14:43:27.037Z,74.82
2019-03-15T14:45:59.600Z,73.69
2019-03-15T14:48:32.268Z,73.76
2019-03-15T14:51:04.858Z,72.32
2019-03-15T14:53:37.792Z,71.91
2019-03-15T14:56:10.389Z,71.72
2019-03-15T14:58:42.956Z,70.46
2019-03-15T15:01:15.598Z,69.12
2019-03-15T15:03:48.069Z,70.00
2019-03-15T15:06:20.601Z,70.76
2019-03-15T15:08:53.148Z,70.07
2019-03-15T15:11:25.836Z,70.35
2019-03-15T15:13:58.767Z,70.43
2019-03-15T15:16:31.370Z,70.38
2019-03-15T15:19:04.009Z,69.85
2019-03-15T15:21:36.758Z,70.66
2019-03-15T15:24:09.573Z,71.01
2019-03-15T15:26:42.058Z,70.33
2019-03-15T15:29:15.338Z,71.36
2019-03-15T15:31:47.700Z,71.71
2019-03-15T15:34:21.089Z,71.74
2019-03-15T15:36:53.838Z,72.75
2019-03-15T15:39:26.531Z,72.98
2019-03-15T15:41:58.932Z,73.05
2019-03-15T15:44:32.648Z,73.30
2019-03-15T15:47:05.138Z,72.61
2019-03-15T15:49:38.403Z,72.56
2019-03-15T15:52:10.948Z,72.46
2019-03-15T15:54:44.048Z,72.80
2019-03-15T15:57:16.408Z,72.53
2019-03-15T15:59:47.638Z,72.52
2019-03-15T16:02:19.888Z,73.52
2019-03-15T16:04:52.555Z,73.00
2019-03-15T16:07:25.002Z,73.36
2019-03-15T16:09:57.588Z,73.67
2019-03-15T16:12:29.986Z,73.75
2019-03-15T16:15:02.481Z,74.10
2019-03-15T16:17:34.927Z,73.92
2019-03-15T16:20:08.178Z,73.80
2019-03-15T16:22:41.107Z,73.64
2019-03-15T16:25:13.617Z,74.19
2019-03-15T16:27:46.158Z,74.48
2019-03-15T16:30:18.710Z,74.17
2019-03-15T16:32:51.037Z,73.87
2019-03-15T16:35:24.179Z,73.74
2019-03-15T16:37:56.638Z,73.80
2019-03-15T16:40:29.329Z,73.71
2019-03-15T16:43:01.978Z,73.74
2019-03-15T16:45:34.369Z,73.94
2019-03-15T16:48:06.818Z,73.96
2019-03-15T16:50:39.469Z,74.19
2019-03-15T16:53:12.000Z,74.39
2019-03-15T16:55:44.538Z,74.68
2019-03-15T16:58:17.004Z,74.88
2019-03-15T17:00:50.445Z,75.05
2019-03-15T17:03:24.108Z,74.98
2019-03-15T17:05:56.648Z,74.98
2019-03-15T17:08:29.308Z,75.08
2019-03-15T17:11:01.868Z,75.26
2019-03-15T17:13:34.267Z,75.52
2019-03-15T17:16:06.832Z,75.75
2019-03-15T17:18:39.368Z,76.24
2019-03-15T17:21:11.698Z,76.74
2019-03-15T17:23:43.968Z,77.26
2019-03-15T17:26:16.447Z,77.45
2019-03-15T17:28:58.623Z,77.67
2019-03-15T17:31:23.364Z,77.87
2019-03-15T17:33:55.828Z,78.03
2019-03-15T17:36:28.458Z,78.19
2019-03-15T17:39:01.167Z,78.26
2019-03-15T17:41:35.148Z,78.40
2019-03-15T17:44:07.620Z,78.30
2019-03-15T17:46:40.304Z,78.40
2019-03-15T17:49:13.447Z,78.46
2019-03-15T17:51:46.068Z,78.62
2019-03-15T17:54:18.528Z,78.45
2019-03-15T17:56:51.068Z,78.40
2019-03-15T17:59:23.567Z,78.70
2019-03-15T18:01:57.878Z,79.09
2019-03-15T18:04:30.409Z,79.35
2019-03-15T18:07:03.644Z,79.73
2019-03-15T18:09:36.228Z,79.24
2019-03-15T18:12:08.838Z,79.38
2019-03-15T18:14:41.259Z,79.66
2019-03-15T18:17:13.878Z,79.86
2019-03-15T18:19:46.330Z,79.87
2019-03-15T18:22:18.771Z,80.07
2019-03-15T18:24:51.293Z,80.16
2019-03-15T18:27:23.657Z,80.29
2019-03-15T18:29:56.323Z,80.49
2019-03-15T18:32:28.778Z,80.38
2019-03-15T18:35:01.519Z,80.28
2019-03-15T18:37:34.021Z,80.41
2019-03-15T18:40:09.328Z,80.42
2019-03-15T18:42:42.287Z,80.66
2019-03-15T18:45:15.229Z,80.43
2019-03-15T18:47:47.797Z,80.28
2019-03-15T18:50:22.017Z,80.44
2019-03-15T18:52:54.550Z,80.50
2019-03-15T18:55:27.095Z,80.58
2019-03-15T18:58:00.637Z,80.80
2019-03-15T19:00:34.168Z,80.52
2019-03-15T19:03:06.601Z,80.38
2019-03-15T19:05:39.096Z,80.30
2019-03-15T19:08:11.548Z,80.15
2019-03-15T19:10:44.277Z,80.00
2019-03-15T19:13:16.867Z,80.03
2019-03-15T19:15:49.438Z,80.07
2019-03-15T19:18:22.298Z,80.23
2019-03-15T19:20:54.937Z,80.32
2019-03-15T19:23:28.658Z,80.50
2019-03-15T19:26:01.038Z,80.60
2019-03-15T19:28:33.652Z,80.14
2019-03-15T19:31:15.107Z,79.59
2019-03-15T19:33:47.872Z,79.62
2019-03-15T19:36:20.447Z,79.46
2019-03-15T19:38:53.088Z,79.37
2019-03-15T19:41:25.758Z,78.98
2019-03-15T19:43:58.748Z,78.70
2019-03-15T19:46:31.357Z,78.04
2019-03-15T19:49:05.069Z,78.29
2019-03-15T19:51:37.568Z,78.22
2019-03-15T19:54:10.347Z,77.84
2019-03-15T19:56:43.038Z,77.01
2019-03-15T19:59:16.348Z,77.05
2019-03-15T20:01:49.088Z,76.34
2019-03-15T20:04:22.257Z,76.62
2019-03-15T20:06:56.291Z,76.15
2019-03-15T20:09:29.029Z,75.49
2019-03-15T20:12:01.617Z,74.92
2019-03-15T20:14:34.280Z,74.61
2019-03-15T20:17:06.911Z,76.09
2019-03-15T20:19:39.559Z,74.76
2019-03-15T20:22:13.737Z,75.21
2019-03-15T20:24:46.118Z,76.81
2019-03-15T20:27:19.591Z,76.30
2019-03-15T20:29:53.207Z,76.29
2019-03-15T20:32:26.827Z,76.75
2019-03-15T20:34:59.687Z,78.41
2019-03-15T20:37:32.904Z,79.44
2019-03-15T20:40:06.760Z,78.78
2019-03-15T20:42:42.694Z,79.22
2019-03-15T20:45:17.047Z,79.76
2019-03-15T20:47:51.088Z,80.02
2019-03-15T20:50:24.045Z,80.92
2019-03-15T20:53:07.822Z,80.62
2019-03-15T20:55:34.942Z,81.12
2019-03-15T20:58:08.730Z,81.02
2019-03-15T21:00:42.151Z,81.67
2019-03-15T21:03:14.986Z,81.86
2019-03-15T21:05:48.340Z,82.37
2019-03-15T21:08:20.941Z,82.32
2019-03-15T21:10:53.675Z,82.53
2019-03-15T21:13:27.547Z,82.89
2019-03-15T21:16:00.006Z,82.98
2019-03-15T21:18:33.187Z,83.88
2019-03-15T21:21:05.868Z,81.83
2019-03-15T21:23:39.278Z,82.52
2019-03-15T21:26:11.757Z,82.95
2019-03-15T21:28:44.427Z,83.04
2019-03-15T21:31:17.000Z,83.15
2019-03-15T21:33:49.488Z,83.39
2019-03-15T21:36:22.048Z,83.53
2019-03-15T21:38:54.547Z,83.41
2019-03-15T21:41:27.257Z,83.46
2019-03-15T21:43:59.977Z,82.73
2019-03-15T21:46:32.627Z,83.99
2019-03-15T21:49:05.475Z,83.03
2019-03-15T21:51:37.948Z,82.22
2019-03-15T21:54:10.689Z,82.14
2019-03-15T21:56:43.332Z,82.19
2019-03-15T21:59:15.777Z,81.99
2019-03-15T22:01:49.430Z,83.22
2019-03-15T22:04:26.427Z,82.59
2019-03-15T22:06:58.937Z,82.86
2019-03-15T22:09:31.450Z,82.29
2019-03-15T22:12:03.847Z,82.67
2019-03-15T22:14:36.257Z,83.09
2019-03-15T22:17:08.578Z,83.47
2019-03-15T22:19:41.150Z,82.44
2019-03-15T22:22:13.750Z,83.17
2019-03-15T22:24:46.087Z,82.60
2019-03-15T22:27:18.611Z,83.10
2019-03-15T22:29:53.633Z,83.13
2019-03-15T22:32:25.477Z,83.96
2019-03-15T22:34:57.926Z,82.59
2019-03-15T22:37:30.768Z,82.35
2019-03-15T22:40:03.378Z,82.00
2019-03-15T22:42:35.796Z,82.69
2019-03-15T22:45:08.412Z,82.85
2019-03-15T22:47:40.885Z,82.13
2019-03-15T22:50:13.479Z,82.42
2019-03-15T22:52:45.748Z,82.69
2019-03-15T22:55:18.288Z,82.84
2019-03-15T22:57:59.934Z,82.45
2019-03-15T23:00:30.622Z,83.06
2019-03-15T23:03:04.900Z,82.81
2019-03-15T23:05:37.713Z,82.73
2019-03-15T23:08:10.489Z,81.51
2019-03-15T23:10:43.058Z,81.76
2019-03-15T23:13:15.829Z,81.62
2019-03-15T23:15:48.338Z,83.26
2019-03-15T23:18:20.767Z,82.47
2019-03-15T23:20:53.209Z,81.75
2019-03-15T23:23:25.553Z,80.17
2019-03-15T23:25:58.038Z,78.59
2019-03-15T23:28:31.667Z,77.07
2019-03-15T23:31:04.780Z,77.80
2019-03-15T23:33:37.277Z,76.45
2019-03-15T23:36:10.537Z,75.71
2019-03-15T23:38:43.139Z,75.48
2019-03-15T23:41:15.719Z,77.11
2019-03-15T23:43:49.488Z,76.80
2019-03-15T23:46:22.208Z,76.87
2019-03-15T23:48:54.668Z,76.75
2019-03-15T23:51:27.100Z,76.97
2019-03-15T23:53:59.488Z,76.07
2019-03-15T23:56:32.267Z,77.20
2019-03-15T23:59:04.648Z,76.92
